Terminal Aerodrome Forecast
Issued by NWS Burlington, VT

Home | Current Version | Previous Version | Text Only | Print | Product List | Glossary On
Versions: 1 2 3 4 5 6 7 8 9 10 11 12 13
955
FTUS41 KBTV 290540
TAFBTV
TAF
KBTV 290540Z 2906/3006 00000KT P6SM FEW250
     FM291300 18007KT P6SM SCT200
     FM291700 17009KT P6SM VCSH BKN150=

USA.gov is the U.S. government's official web portal to all federal, state and local government web resources and services.